createdAt,value
2022-10-09T00:01:59.917Z,99.90
2022-10-09T00:12:01.708Z,99.90
2022-10-09T00:22:03.605Z,99.90
2022-10-09T00:32:05.508Z,99.90
2022-10-09T00:42:09.782Z,99.90
2022-10-09T00:52:12.234Z,99.90
2022-10-09T01:02:14.257Z,99.90
2022-10-09T01:12:38.895Z,99.90
2022-10-09T01:22:59.598Z,99.90
2022-10-09T01:33:01.979Z,99.90
2022-10-09T01:43:09.175Z,99.90
2022-10-09T01:53:15.833Z,99.90
2022-10-09T02:03:25.073Z,99.90
2022-10-09T02:13:34.218Z,99.90
2022-10-09T02:23:38.672Z,99.90
2022-10-09T02:33:55.832Z,99.90
2022-10-09T02:43:57.791Z,99.90
2022-10-09T02:53:59.892Z,99.90
2022-10-09T03:04:02.210Z,99.90
2022-10-09T03:14:04.076Z,99.90
2022-10-09T03:24:05.942Z,99.90
2022-10-09T03:34:08.280Z,99.90
2022-10-09T03:44:10.164Z,99.90
2022-10-09T03:54:12.112Z,99.90
2022-10-09T04:04:14.062Z,99.90
2022-10-09T04:14:15.863Z,99.90
2022-10-09T04:24:17.877Z,99.90
2022-10-09T04:34:19.868Z,99.90
2022-10-09T04:44:24.870Z,99.90
2022-10-09T04:54:41.942Z,99.90
2022-10-09T05:04:43.804Z,99.90
2022-10-09T05:14:45.680Z,99.90
2022-10-09T05:24:47.559Z,99.90
2022-10-09T05:34:49.400Z,99.90
2022-10-09T05:44:51.311Z,99.90
2022-10-09T05:54:53.115Z,99.90
2022-10-09T06:04:54.982Z,99.90
2022-10-09T06:14:57.000Z,99.90
2022-10-09T06:24:58.840Z,99.90
2022-10-09T06:35:00.662Z,99.90
2022-10-09T06:45:02.583Z,99.90
2022-10-09T06:55:04.839Z,99.90
2022-10-09T07:05:07.235Z,99.90
2022-10-09T07:15:29.157Z,99.90
2022-10-09T07:25:31.894Z,99.90
2022-10-09T07:35:33.769Z,99.90
2022-10-09T07:45:36.990Z,99.90
2022-10-09T07:55:45.279Z,99.90
2022-10-09T08:05:54.992Z,99.90
2022-10-09T08:15:58.272Z,99.90
2022-10-09T08:26:00.122Z,99.90
2022-10-09T08:36:06.953Z,99.90
2022-10-09T08:46:22.440Z,99.00
2022-10-09T08:56:38.030Z,99.90
2022-10-09T09:07:18.485Z,99.90
2022-10-09T09:17:44.860Z,99.90
2022-10-09T09:27:47.429Z,99.90
2022-10-09T09:37:49.385Z,99.90
2022-10-09T09:47:59.821Z,99.30
2022-10-09T09:58:15.545Z,99.10
2022-10-09T10:08:36.573Z,96.40
2022-10-09T10:18:41.625Z,97.30
2022-10-09T10:28:49.763Z,96.80
2022-10-09T10:39:11.261Z,96.30
2022-10-09T10:49:19.533Z,94.40
2022-10-09T10:59:36.619Z,92.50
2022-10-09T11:10:36.108Z,94.60
2022-10-09T11:20:50.045Z,93.20
2022-10-09T11:30:55.426Z,93.20
2022-10-09T11:41:06.457Z,90.00
2022-10-09T11:51:27.226Z,86.30
2022-10-09T12:01:52.014Z,89.70
2022-10-09T12:12:22.991Z,85.40
2022-10-09T12:23:07.394Z,88.90
2022-10-09T12:56:11.877Z,82.80
2022-10-09T13:06:23.860Z,82.60
2022-10-09T13:16:26.143Z,80.20
2022-10-09T13:26:31.004Z,85.20
2022-10-09T13:36:42.255Z,85.00
2022-10-09T13:46:44.159Z,83.10
2022-10-09T13:56:47.347Z,79.50
2022-10-09T14:06:49.693Z,81.60
2022-10-09T14:16:51.543Z,81.30
2022-10-09T14:26:53.354Z,80.00
2022-10-09T14:36:55.155Z,80.70
2022-10-09T14:46:57.053Z,80.20
2022-10-09T14:56:58.951Z,78.90
2022-10-09T15:07:00.793Z,83.30
2022-10-09T15:17:02.631Z,82.90
2022-10-09T15:27:05.070Z,83.60
2022-10-09T15:37:07.003Z,84.40
2022-10-09T15:47:08.933Z,84.70
2022-10-09T15:57:10.774Z,86.70
2022-10-09T16:07:12.754Z,86.70
2022-10-09T16:17:14.502Z,95.90
2022-10-09T16:27:16.460Z,99.90
2022-10-09T16:37:18.276Z,99.90
2022-10-09T16:47:20.171Z,99.90
2022-10-09T16:57:21.980Z,99.90
2022-10-09T17:07:23.799Z,99.90
2022-10-09T17:17:25.655Z,99.90
2022-10-09T17:27:27.611Z,99.90
2022-10-09T17:37:29.487Z,99.90
2022-10-09T17:47:31.345Z,99.90
2022-10-09T17:57:33.566Z,99.90
2022-10-09T18:07:35.489Z,99.90
2022-10-09T18:17:37.367Z,99.90
2022-10-09T18:27:39.464Z,99.90
2022-10-09T18:37:45.087Z,99.90
2022-10-09T18:47:49.605Z,99.90
2022-10-09T18:57:52.482Z,99.90
2022-10-09T19:07:54.519Z,99.90
2022-10-09T19:17:56.362Z,99.90
2022-10-09T19:27:58.838Z,99.90
2022-10-09T19:38:00.659Z,99.90
2022-10-09T19:48:02.856Z,99.90
2022-10-09T20:09:10.284Z,99.90
2022-10-09T20:19:12.864Z,99.90
2022-10-09T20:29:14.846Z,99.90
2022-10-09T20:39:16.806Z,99.90
2022-10-09T20:49:18.733Z,99.90
2022-10-09T20:59:20.621Z,99.90
2022-10-09T21:09:22.609Z,99.90
2022-10-09T21:19:24.424Z,99.90
2022-10-09T21:29:26.424Z,99.90
2022-10-09T21:39:28.646Z,99.90
2022-10-09T21:49:33.577Z,99.90
2022-10-09T21:59:35.507Z,99.90
2022-10-09T22:09:42.562Z,99.90
2022-10-09T22:19:44.438Z,99.90
2022-10-09T22:30:02.307Z,99.90
2022-10-09T22:40:24.357Z,99.90
2022-10-09T22:50:31.465Z,99.90
2022-10-09T23:00:36.855Z,99.90
2022-10-09T23:10:40.573Z,99.90
2022-10-09T23:20:42.422Z,99.90
2022-10-09T23:30:44.376Z,99.90
2022-10-09T23:41:07.571Z,99.90
2022-10-09T23:51:10.231Z,99.90
